createdAt,value
2018-11-27T00:02:27.421Z,4.53
2018-11-27T00:05:04.398Z,4.56
2018-11-27T00:07:39.423Z,4.57
2018-11-27T00:10:13.345Z,4.58
2018-11-27T00:12:48.435Z,4.59
2018-11-27T00:15:21.463Z,4.59
2018-11-27T00:17:56.384Z,4.51
2018-11-27T00:20:31.813Z,4.51
2018-11-27T00:23:06.914Z,4.48
2018-11-27T00:25:42.533Z,4.55
2018-11-27T00:28:17.295Z,4.52
2018-11-27T00:30:52.292Z,4.57
2018-11-27T00:33:25.288Z,4.59
2018-11-27T00:35:59.951Z,4.61
2018-11-27T00:38:35.290Z,4.65
2018-11-27T00:41:09.922Z,4.65
2018-11-27T00:43:44.725Z,4.73
2018-11-27T00:46:19.285Z,4.63
2018-11-27T00:48:52.280Z,4.63
2018-11-27T00:51:27.279Z,4.69
2018-11-27T00:54:00.285Z,4.72
2018-11-27T00:56:35.304Z,4.73
2018-11-27T00:59:08.302Z,4.69
2018-11-27T01:01:43.296Z,4.69
2018-11-27T01:04:16.278Z,4.71
2018-11-27T01:06:50.946Z,4.73
2018-11-27T01:09:26.299Z,4.70
2018-11-27T01:12:01.287Z,4.72
2018-11-27T01:14:34.282Z,4.78
2018-11-27T01:17:09.281Z,4.78
2018-11-27T01:19:42.287Z,4.75
2018-11-27T01:22:17.319Z,4.74
2018-11-27T01:24:50.302Z,4.76
2018-11-27T01:27:25.340Z,4.75
2018-11-27T01:29:58.286Z,4.69
2018-11-27T01:32:33.418Z,4.68
2018-11-27T01:35:08.905Z,4.69
2018-11-27T01:37:43.954Z,4.70
2018-11-27T01:40:25.343Z,4.65
2018-11-27T01:43:01.360Z,4.60
2018-11-27T01:45:37.285Z,4.59
2018-11-27T01:48:10.080Z,4.50
2018-11-27T01:50:45.293Z,4.50
2018-11-27T01:53:20.274Z,4.46
2018-11-27T01:55:55.277Z,4.40
2018-11-27T01:58:28.274Z,4.39
2018-11-27T02:01:02.947Z,4.39
2018-11-27T02:03:38.305Z,4.44
2018-11-27T02:06:13.409Z,4.45
2018-11-27T02:08:48.337Z,4.41
2018-11-27T02:11:22.951Z,4.41
2018-11-27T02:13:57.889Z,4.39
2018-11-27T02:16:32.480Z,4.39
2018-11-27T02:19:07.399Z,4.39
2018-11-27T02:21:42.368Z,4.35
2018-11-27T02:24:17.386Z,4.42
2018-11-27T02:26:51.943Z,4.47
2018-11-27T02:29:27.294Z,4.47
2018-11-27T02:32:02.350Z,4.51
2018-11-27T02:34:35.295Z,4.50
2018-11-27T02:37:08.282Z,4.49
2018-11-27T02:39:41.289Z,4.50
2018-11-27T02:42:16.285Z,4.47
2018-11-27T02:44:49.300Z,4.50
2018-11-27T02:47:22.334Z,4.45
2018-11-27T02:49:55.412Z,4.40
2018-11-27T02:52:28.321Z,4.38
2018-11-27T02:55:02.969Z,4.37
2018-11-27T02:57:38.371Z,4.39
2018-11-27T03:00:15.515Z,4.39
2018-11-27T03:02:50.408Z,4.37
2018-11-27T03:05:41.633Z,4.37
2018-11-27T03:08:16.575Z,4.34
2018-11-27T03:10:51.453Z,4.31
2018-11-27T03:13:26.295Z,4.11
2018-11-27T03:16:01.290Z,4.11
2018-11-27T03:18:34.384Z,4.21
2018-11-27T03:21:09.453Z,4.15
2018-11-27T03:23:44.336Z,3.99
2018-11-27T03:26:19.335Z,3.99
2018-11-27T03:28:54.289Z,4.03
2018-11-27T03:31:29.414Z,4.00
2018-11-27T03:34:04.409Z,3.98
2018-11-27T03:36:38.951Z,3.98
2018-11-27T03:39:17.368Z,3.92
2018-11-27T03:41:50.293Z,3.98
2018-11-27T03:44:23.306Z,3.97
2018-11-27T03:46:58.386Z,3.96
2018-11-27T03:49:31.294Z,3.95
2018-11-27T03:52:06.295Z,3.93
2018-11-27T03:54:42.362Z,3.91
2018-11-27T03:57:15.292Z,3.88
2018-11-27T03:59:48.292Z,3.88
2018-11-27T04:02:22.841Z,3.84
2018-11-27T04:04:57.439Z,3.87
2018-11-27T04:07:30.720Z,3.87
2018-11-27T04:10:05.411Z,3.90
2018-11-27T04:12:38.289Z,3.87
2018-11-27T04:15:13.330Z,3.89
2018-11-27T04:17:48.299Z,3.87
2018-11-27T04:20:21.300Z,3.88
2018-11-27T04:22:54.287Z,3.91
2018-11-27T04:25:30.766Z,3.99
2018-11-27T04:28:05.387Z,3.96
2018-11-27T04:30:42.342Z,3.92
2018-11-27T04:33:17.297Z,3.95
2018-11-27T04:35:52.305Z,3.96
2018-11-27T04:38:27.422Z,4.00
2018-11-27T04:41:01.955Z,4.00
2018-11-27T04:43:37.148Z,3.97
2018-11-27T04:46:12.293Z,3.97
2018-11-27T04:48:45.288Z,3.90
2018-11-27T04:51:20.292Z,3.93
2018-11-27T04:53:53.285Z,3.95
2018-11-27T04:56:28.041Z,3.96
2018-11-27T04:59:03.301Z,3.99
2018-11-27T05:01:38.003Z,4.02
2018-11-27T05:04:13.402Z,3.98
2018-11-27T05:06:46.459Z,3.98
2018-11-27T05:09:21.401Z,4.00
2018-11-27T05:11:54.293Z,4.00
2018-11-27T05:14:27.312Z,3.94
2018-11-27T05:17:02.145Z,3.91
2018-11-27T05:19:37.395Z,3.86
2018-11-27T05:22:10.501Z,3.89
2018-11-27T05:24:45.962Z,3.87
2018-11-27T05:27:20.916Z,3.83
2018-11-27T05:29:55.821Z,3.83
2018-11-27T05:32:30.967Z,3.84
2018-11-27T05:35:06.305Z,3.90
2018-11-27T05:37:41.300Z,3.90
2018-11-27T05:40:26.978Z,3.93
2018-11-27T05:43:18.467Z,3.95
2018-11-27T05:45:53.300Z,3.87
2018-11-27T05:48:26.302Z,3.87
2018-11-27T05:51:01.382Z,3.90
2018-11-27T05:53:36.298Z,3.85
2018-11-27T05:56:11.399Z,3.80
2018-11-27T05:58:46.458Z,3.75
2018-11-27T06:01:21.297Z,3.75
2018-11-27T06:03:54.283Z,3.77
2018-11-27T06:06:29.704Z,3.80
2018-11-27T06:09:04.801Z,3.84
2018-11-27T06:11:39.959Z,3.85
2018-11-27T06:14:15.324Z,3.85
2018-11-27T06:16:49.960Z,3.86
2018-11-27T06:19:25.182Z,3.82
2018-11-27T06:21:59.607Z,3.82
2018-11-27T06:24:34.453Z,3.81
2018-11-27T06:27:07.872Z,3.77
2018-11-27T06:29:42.909Z,3.78
2018-11-27T06:32:21.375Z,3.79
2018-11-27T06:34:51.324Z,3.71
2018-11-27T06:37:45.289Z,3.83
2018-11-27T06:40:21.992Z,3.78
2018-11-27T06:42:57.086Z,3.79
2018-11-27T06:45:34.427Z,3.79
2018-11-27T06:48:09.582Z,3.72
2018-11-27T06:50:44.355Z,3.72
2018-11-27T06:53:19.293Z,3.77
2018-11-27T06:55:55.918Z,3.76
2018-11-27T06:58:31.359Z,3.78
2018-11-27T07:01:07.420Z,3.77
2018-11-27T07:03:40.302Z,3.71
2018-11-27T07:06:16.433Z,3.71
2018-11-27T07:08:51.443Z,3.60
2018-11-27T07:11:26.297Z,3.66
2018-11-27T07:13:59.294Z,3.66
2018-11-27T07:16:34.380Z,3.65
2018-11-27T07:19:07.706Z,3.63
2018-11-27T07:21:40.530Z,3.66
2018-11-27T07:24:15.795Z,3.66
2018-11-27T07:26:52.939Z,3.74
2018-11-27T07:29:27.524Z,3.68
2018-11-27T07:32:00.688Z,3.68
2018-11-27T07:34:35.766Z,3.71
2018-11-27T07:37:10.464Z,3.82
2018-11-27T07:39:45.484Z,3.82
2018-11-27T07:42:20.465Z,3.78
2018-11-27T07:44:55.312Z,3.81
2018-11-27T07:47:30.312Z,3.82
2018-11-27T07:50:03.299Z,3.82
2018-11-27T07:52:36.286Z,3.86
2018-11-27T07:55:29.549Z,3.83
2018-11-27T07:58:04.468Z,3.90
2018-11-27T08:00:39.046Z,3.96
2018-11-27T08:03:14.288Z,3.93
2018-11-27T08:05:48.806Z,3.94
2018-11-27T08:08:23.961Z,3.94
2018-11-27T08:10:58.486Z,3.91
2018-11-27T08:13:33.292Z,3.92
2018-11-27T08:16:08.294Z,3.95
2018-11-27T08:18:41.356Z,3.98
2018-11-27T08:21:16.405Z,4.04
2018-11-27T08:23:51.417Z,4.00
2018-11-27T08:26:27.957Z,4.00
2018-11-27T08:29:06.403Z,4.05
2018-11-27T08:31:41.314Z,4.06
2018-11-27T08:34:14.386Z,4.04
2018-11-27T08:36:50.740Z,3.82
2018-11-27T08:39:25.374Z,3.75
2018-11-27T08:42:00.299Z,3.75
2018-11-27T08:44:33.294Z,3.69
2018-11-27T08:47:08.508Z,3.64
2018-11-27T08:52:06.598Z,3.67
2018-11-27T08:54:41.435Z,3.67
2018-11-27T08:57:16.276Z,3.73
2018-11-27T08:59:49.353Z,3.69
2018-11-27T09:02:24.304Z,3.67
2018-11-27T09:07:48.588Z,3.73
2018-11-27T09:10:25.886Z,3.70
2018-11-27T09:13:00.825Z,3.69
2018-11-27T09:15:39.404Z,3.64
2018-11-27T09:18:26.444Z,3.68
2018-11-27T09:21:01.404Z,3.67
2018-11-27T09:23:36.292Z,3.47
2018-11-27T09:26:11.429Z,3.47
2018-11-27T09:28:46.744Z,3.55
2018-11-27T09:31:21.562Z,3.55
2018-11-27T09:33:56.397Z,3.51
2018-11-27T09:36:31.344Z,3.49
2018-11-27T09:39:04.880Z,3.49
2018-11-27T09:41:37.815Z,3.51
2018-11-27T09:44:13.300Z,3.50
2018-11-27T09:46:48.343Z,3.43
2018-11-27T09:49:24.353Z,3.43
2018-11-27T09:51:59.297Z,3.50
2018-11-27T09:54:34.288Z,3.47
2018-11-27T09:57:09.340Z,3.50
2018-11-27T09:59:44.969Z,3.43
2018-11-27T10:02:20.142Z,3.43
2018-11-27T10:04:55.353Z,3.49
2018-11-27T10:07:30.303Z,3.50
2018-11-27T10:10:05.354Z,3.42
2018-11-27T10:12:38.509Z,3.41
2018-11-27T10:15:18.965Z,3.45
2018-11-27T10:18:13.742Z,3.44
2018-11-27T10:20:48.800Z,3.45
2018-11-27T10:23:24.360Z,3.40
2018-11-27T10:25:59.314Z,3.40
2018-11-27T10:28:34.421Z,3.40
2018-11-27T10:31:09.380Z,3.28
2018-11-27T10:33:44.400Z,3.28
2018-11-27T10:36:19.303Z,3.32
2018-11-27T10:38:52.308Z,3.39
2018-11-27T10:41:27.362Z,3.36
2018-11-27T10:44:02.293Z,3.38
2018-11-27T10:46:37.423Z,3.34
2018-11-27T10:49:12.493Z,3.35
2018-11-27T10:51:45.288Z,3.35
2018-11-27T10:54:20.384Z,3.41
2018-11-27T10:56:55.302Z,3.33
2018-11-27T10:59:30.945Z,3.42
2018-11-27T11:02:22.685Z,3.37
2018-11-27T11:04:57.402Z,3.43
2018-11-27T11:07:32.472Z,3.43
2018-11-27T11:10:07.481Z,3.45
2018-11-27T11:12:42.401Z,3.30
2018-11-27T11:15:17.423Z,3.30
2018-11-27T11:17:50.724Z,3.28
2018-11-27T11:20:25.911Z,3.22
2018-11-27T11:23:01.285Z,3.22
2018-11-27T11:25:37.322Z,3.29
2018-11-27T11:28:11.670Z,3.27
2018-11-27T11:30:47.394Z,3.34
2018-11-27T11:33:22.422Z,3.34
2018-11-27T11:35:57.295Z,3.39
2018-11-27T11:38:31.284Z,3.36
2018-11-27T11:41:06.134Z,3.35
2018-11-27T11:43:39.344Z,3.36
2018-11-27T11:46:14.301Z,3.42
2018-11-27T11:48:48.286Z,3.34
2018-11-27T11:51:23.282Z,3.32
2018-11-27T11:53:56.286Z,3.28
2018-11-27T11:56:31.238Z,3.28
2018-11-27T11:59:06.399Z,3.33
2018-11-27T12:01:39.663Z,3.28
2018-11-27T12:04:15.146Z,3.25
2018-11-27T12:06:49.959Z,3.31
2018-11-27T12:09:25.143Z,3.33
2018-11-27T12:12:00.355Z,3.29
2018-11-27T12:14:33.262Z,3.29
2018-11-27T12:17:08.289Z,3.34
2018-11-27T12:19:41.112Z,3.21
2018-11-27T12:22:16.333Z,3.13
2018-11-27T12:24:49.294Z,3.11
2018-11-27T12:27:22.427Z,3.15
2018-11-27T12:29:57.325Z,3.30
2018-11-27T12:32:32.409Z,3.36
2018-11-27T12:35:05.475Z,3.23
2018-11-27T12:40:05.324Z,3.26
2018-11-27T12:42:40.310Z,3.26
2018-11-27T12:45:17.339Z,3.23
2018-11-27T12:47:52.445Z,3.12
2018-11-27T12:50:50.442Z,3.08
2018-11-27T12:53:25.456Z,3.10
2018-11-27T12:56:00.295Z,3.10
2018-11-27T12:58:33.690Z,3.13
2018-11-27T13:01:09.547Z,3.20
2018-11-27T13:03:42.380Z,3.17
2018-11-27T13:06:17.083Z,3.17
2018-11-27T13:08:52.366Z,3.18
2018-11-27T13:11:27.299Z,3.18
2018-11-27T13:14:00.295Z,3.14
2018-11-27T13:16:35.282Z,3.13
2018-11-27T13:19:08.351Z,2.83
2018-11-27T13:21:43.284Z,2.83
2018-11-27T13:24:16.241Z,2.94
2018-11-27T13:26:51.128Z,2.89
2018-11-27T13:29:26.420Z,2.83
2018-11-27T13:32:00.951Z,2.83
2018-11-27T13:34:36.172Z,2.85
2018-11-27T13:37:10.950Z,2.89
2018-11-27T13:39:46.201Z,2.80
2018-11-27T13:42:19.287Z,2.89
2018-11-27T13:44:52.301Z,2.82
2018-11-27T13:47:44.560Z,2.90
2018-11-27T13:50:20.380Z,2.94
2018-11-27T13:52:53.282Z,2.85
2018-11-27T13:55:28.363Z,2.85
2018-11-27T13:58:01.298Z,2.88
2018-11-27T14:00:37.177Z,2.91
2018-11-27T14:03:12.285Z,2.91
2018-11-27T14:05:47.293Z,2.89
2018-11-27T14:08:20.414Z,2.86
2018-11-27T14:10:55.281Z,2.84
2018-11-27T14:13:28.335Z,2.69
2018-11-27T14:16:03.302Z,2.69
2018-11-27T14:18:36.400Z,2.75
2018-11-27T14:21:11.346Z,2.77
2018-11-27T14:23:44.310Z,2.74
2018-11-27T14:26:19.293Z,2.73
2018-11-27T14:28:54.290Z,2.51
2018-11-27T14:31:29.085Z,2.51
2018-11-27T14:34:04.282Z,2.53
2018-11-27T14:36:40.291Z,2.48
2018-11-27T14:39:14.124Z,2.45
2018-11-27T14:41:49.276Z,2.45
2018-11-27T14:44:22.286Z,2.37
2018-11-27T14:46:56.951Z,2.28
2018-11-27T14:49:32.277Z,2.31
2018-11-27T14:52:07.366Z,2.36
2018-11-27T14:54:42.148Z,2.35
2018-11-27T14:57:17.275Z,2.20
2018-11-27T14:59:50.278Z,2.23
2018-11-27T15:02:25.282Z,2.20
2018-11-27T15:04:58.297Z,2.25
2018-11-27T15:07:33.201Z,2.25
2018-11-27T15:10:09.359Z,2.20
2018-11-27T15:12:42.282Z,2.18
2018-11-27T15:15:17.971Z,2.15
2018-11-27T15:17:53.340Z,2.13
2018-11-27T15:20:28.777Z,2.04
2018-11-27T15:23:03.955Z,2.05
2018-11-27T15:25:46.749Z,2.13
2018-11-27T15:28:21.579Z,2.14
2018-11-27T15:30:56.379Z,2.12
2018-11-27T15:33:31.282Z,2.05
2018-11-27T15:36:06.427Z,2.05
2018-11-27T15:38:41.355Z,2.16
2018-11-27T15:41:16.384Z,2.16
2018-11-27T15:43:51.952Z,2.09
2018-11-27T15:46:26.884Z,2.03
2018-11-27T15:49:01.884Z,2.01
2018-11-27T15:51:36.479Z,2.06
2018-11-27T15:54:11.391Z,2.15
2018-11-27T15:56:46.285Z,2.16
2018-11-27T15:59:19.276Z,2.06
2018-11-27T16:01:54.341Z,2.06
2018-11-27T16:04:29.361Z,2.09
2018-11-27T16:07:04.153Z,2.09
2018-11-27T16:09:39.431Z,2.16
2018-11-27T16:12:14.233Z,2.15
2018-11-27T16:14:49.441Z,2.14
2018-11-27T16:17:24.277Z,2.14
2018-11-27T16:19:57.853Z,2.17
2018-11-27T16:22:30.632Z,2.20
2018-11-27T16:25:05.504Z,2.22
2018-11-27T16:27:40.275Z,2.22
2018-11-27T16:30:37.382Z,2.22
2018-11-27T16:33:12.428Z,2.17
2018-11-27T16:35:47.304Z,2.23
2018-11-27T16:38:22.361Z,2.21
2018-11-27T16:40:57.282Z,2.23
2018-11-27T16:43:30.282Z,2.17
2018-11-27T16:46:04.942Z,2.12
2018-11-27T16:48:39.954Z,2.12
2018-11-27T16:51:14.453Z,2.16
2018-11-27T16:53:49.290Z,2.14
2018-11-27T16:56:24.301Z,2.14
2018-11-27T16:58:59.295Z,2.16
2018-11-27T17:01:33.959Z,2.15
2018-11-27T17:04:09.147Z,2.17
2018-11-27T17:06:44.278Z,2.22
2018-11-27T17:09:19.314Z,2.22
2018-11-27T17:11:54.460Z,2.22
2018-11-27T17:14:29.314Z,2.33
2018-11-27T17:17:04.277Z,2.38
2018-11-27T17:19:39.600Z,2.39
2018-11-27T17:22:14.323Z,2.38
2018-11-27T17:24:47.325Z,2.38
2018-11-27T17:27:22.280Z,2.31
2018-11-27T17:29:56.385Z,2.31
2018-11-27T17:32:29.274Z,2.31
2018-11-27T17:35:05.357Z,2.34
2018-11-27T17:37:39.863Z,2.31
2018-11-27T17:40:16.384Z,2.32
2018-11-27T17:42:51.285Z,2.30
2018-11-27T17:45:47.301Z,2.33
2018-11-27T17:48:20.293Z,2.27
2018-11-27T17:50:55.305Z,2.27
2018-11-27T17:53:28.311Z,2.25
2018-11-27T17:56:03.296Z,2.19
2018-11-27T17:58:35.873Z,2.15
2018-11-27T18:01:10.730Z,2.16
2018-11-27T18:03:45.466Z,2.15
2018-11-27T18:06:20.365Z,2.09
2018-11-27T18:08:55.151Z,2.09
2018-11-27T18:11:29.896Z,2.14
2018-11-27T18:14:04.961Z,2.11
2018-11-27T18:16:37.669Z,2.18
2018-11-27T18:19:12.770Z,2.18
2018-11-27T18:21:47.297Z,2.12
2018-11-27T18:24:21.127Z,2.12
2018-11-27T18:26:56.289Z,2.11
2018-11-27T18:29:29.886Z,2.05
2018-11-27T18:32:04.954Z,2.00
2018-11-27T18:34:40.577Z,1.94
2018-11-27T18:37:15.466Z,1.79
2018-11-27T18:39:50.961Z,1.79
2018-11-27T18:42:25.768Z,1.85
2018-11-27T18:45:00.977Z,1.99
2018-11-27T18:47:35.904Z,1.99
2018-11-27T18:50:12.943Z,1.98
2018-11-27T18:52:47.711Z,2.05
2018-11-27T18:56:16.306Z,2.16
2018-11-27T18:58:49.142Z,2.12
2018-11-27T19:01:24.273Z,2.02
2018-11-27T19:03:57.109Z,2.05
2018-11-27T19:06:32.022Z,1.95
2018-11-27T19:09:08.320Z,1.95
2018-11-27T19:11:43.353Z,1.99
2018-11-27T19:14:16.743Z,1.99
2018-11-27T19:16:51.661Z,1.97
2018-11-27T19:19:27.365Z,1.98
2018-11-27T19:22:02.305Z,1.96
2018-11-27T19:24:35.819Z,1.96
2018-11-27T19:27:09.010Z,1.95
2018-11-27T19:29:44.957Z,2.01
2018-11-27T19:32:19.747Z,2.01
2018-11-27T19:34:55.351Z,1.98
2018-11-27T19:37:30.282Z,1.98
2018-11-27T19:40:06.352Z,2.02
2018-11-27T19:42:41.156Z,1.96
2018-11-27T19:45:41.300Z,1.94
2018-11-27T19:48:14.723Z,1.89
2018-11-27T19:50:49.538Z,1.80
2018-11-27T19:53:24.365Z,1.87
2018-11-27T19:55:57.287Z,1.87
2018-11-27T19:58:30.143Z,1.88
2018-11-27T20:01:05.291Z,1.91
2018-11-27T20:03:38.287Z,1.78
2018-11-27T20:06:11.283Z,1.82
2018-11-27T20:08:44.124Z,1.86
2018-11-27T20:11:19.123Z,1.77
2018-11-27T20:13:54.144Z,1.72
2018-11-27T20:16:29.231Z,1.73
2018-11-27T20:19:02.297Z,1.73
2018-11-27T20:21:37.284Z,1.67
2018-11-27T20:24:10.425Z,1.69
2018-11-27T20:26:45.459Z,1.63
2018-11-27T20:29:20.911Z,1.63
2018-11-27T20:31:55.961Z,1.65
2018-11-27T20:34:31.472Z,1.54
2018-11-27T20:37:06.289Z,1.53
2018-11-27T20:39:39.820Z,1.53
2018-11-27T20:42:14.952Z,1.41
2018-11-27T20:44:50.339Z,1.44
2018-11-27T20:47:25.319Z,1.37
2018-11-27T20:49:58.775Z,1.37
2018-11-27T20:52:33.309Z,1.35
2018-11-27T20:55:09.346Z,1.35
2018-11-27T20:57:45.300Z,1.25
2018-11-27T21:00:46.286Z,1.07
2018-11-27T21:03:19.140Z,1.02
2018-11-27T21:05:54.109Z,1.02
2018-11-27T21:08:29.297Z,0.98
2018-11-27T21:13:23.416Z,1.01
2018-11-27T21:15:58.306Z,0.94
2018-11-27T21:18:31.118Z,0.94
2018-11-27T21:21:06.285Z,0.89
2018-11-27T21:23:41.395Z,0.86
2018-11-27T21:26:15.522Z,0.76
2018-11-27T21:28:50.278Z,0.66
2018-11-27T21:31:25.115Z,0.66
2018-11-27T21:34:00.310Z,0.65
2018-11-27T21:36:35.315Z,0.59
2018-11-27T21:39:12.310Z,0.62
2018-11-27T21:41:45.286Z,0.60
2018-11-27T21:44:18.934Z,0.61
2018-11-27T21:46:53.888Z,0.55
2018-11-27T21:49:29.307Z,0.55
2018-11-27T21:52:04.293Z,0.59
2018-11-27T21:54:37.821Z,0.63
2018-11-27T21:58:27.343Z,0.69
2018-11-27T22:01:00.102Z,0.62
2018-11-27T22:03:35.276Z,0.60
2018-11-27T22:06:09.956Z,0.42
2018-11-27T22:08:53.887Z,0.42
2018-11-27T22:11:28.923Z,0.41
2018-11-27T22:14:03.784Z,0.41
2018-11-27T22:16:39.287Z,0.40
2018-11-27T22:19:12.282Z,0.35
2018-11-27T22:21:47.112Z,0.26
2018-11-27T22:24:23.264Z,0.25
2018-11-27T22:26:58.290Z,0.20
2018-11-27T22:29:34.281Z,0.17
2018-11-27T22:32:09.589Z,0.20
2018-11-27T22:34:44.949Z,0.21
2018-11-27T22:37:19.690Z,0.18
2018-11-27T22:39:55.007Z,0.22
2018-11-27T22:42:29.984Z,0.20
2018-11-27T22:45:05.503Z,0.17
2018-11-27T22:47:38.286Z,0.08
2018-11-27T22:50:21.312Z,0.12
2018-11-27T22:52:54.278Z,0.12
2018-11-27T22:55:32.631Z,0.12
2018-11-27T22:58:05.477Z,0.11
2018-11-27T23:00:54.279Z,0.08
2018-11-27T23:03:27.279Z,0.08
2018-11-27T23:06:01.991Z,-0.11
2018-11-27T23:08:37.286Z,-0.08
2018-11-27T23:11:12.292Z,-0.08
2018-11-27T23:13:45.275Z,-0.06
2018-11-27T23:16:20.287Z,-0.10
2018-11-27T23:18:53.150Z,-0.21
2018-11-27T23:21:28.411Z,-0.13
2018-11-27T23:24:03.284Z,-0.14
2018-11-27T23:26:38.302Z,-0.14
2018-11-27T23:29:11.390Z,-0.12
2018-11-27T23:31:46.295Z,0.02
2018-11-27T23:34:21.410Z,0.07
2018-11-27T23:36:56.297Z,0.11
2018-11-27T23:39:31.357Z,0.11
2018-11-27T23:42:06.665Z,0.08
2018-11-27T23:44:41.824Z,0.06
2018-11-27T23:47:16.467Z,0.06
2018-11-27T23:49:51.460Z,0.20
2018-11-27T23:52:26.309Z,0.20
2018-11-27T23:54:59.332Z,0.30
2018-11-27T23:57:34.287Z,0.42
